sensor_id;sensor_type;location;lat;lon;timestamp;P1;durP1;ratioP1;P2;durP2;ratioP2
71423;SDS011;59240;51.370;-0.486;2023-03-31T00:01:28;9.75;;;0.95;;
71423;SDS011;59240;51.370;-0.486;2023-03-31T00:03:55;11.80;;;1.13;;
71423;SDS011;59240;51.370;-0.486;2023-03-31T00:06:32;12.82;;;0.93;;
71423;SDS011;59240;51.370;-0.486;2023-03-31T00:09:05;12.30;;;1.17;;
71423;SDS011;59240;51.370;-0.486;2023-03-31T00:11:37;9.27;;;0.80;;
71423;SDS011;59240;51.370;-0.486;2023-03-31T00:14:06;19.20;;;2.97;;
71423;SDS011;59240;51.370;-0.486;2023-03-31T00:16:36;12.15;;;1.00;;
71423;SDS011;59240;51.370;-0.486;2023-03-31T00:19:13;16.52;;;1.52;;
71423;SDS011;59240;51.370;-0.486;2023-03-31T00:21:44;11.88;;;0.88;;
71423;SDS011;59240;51.370;-0.486;2023-03-31T00:24:14;18.57;;;1.53;;
71423;SDS011;59240;51.370;-0.486;2023-03-31T00:26:44;11.90;;;1.20;;
71423;SDS011;59240;51.370;-0.486;2023-03-31T00:29:13;8.05;;;0.68;;
71423;SDS011;59240;51.370;-0.486;2023-03-31T00:31:40;15.48;;;1.00;;
71423;SDS011;59240;51.370;-0.486;2023-03-31T00:34:16;13.40;;;1.00;;
71423;SDS011;59240;51.370;-0.486;2023-03-31T00:36:43;8.10;;;0.93;;
71423;SDS011;59240;51.370;-0.486;2023-03-31T00:39:16;12.32;;;1.00;;
71423;SDS011;59240;51.370;-0.486;2023-03-31T00:41:44;9.13;;;0.88;;
71423;SDS011;59240;51.370;-0.486;2023-03-31T00:44:15;16.42;;;1.13;;
71423;SDS011;59240;51.370;-0.486;2023-03-31T00:49:28;8.17;;;0.40;;
71423;SDS011;59240;51.370;-0.486;2023-03-31T00:52:03;12.68;;;1.38;;
71423;SDS011;59240;51.370;-0.486;2023-03-31T00:54:53;10.82;;;0.63;;
71423;SDS011;59240;51.370;-0.486;2023-03-31T00:57:26;14.55;;;1.15;;
71423;SDS011;59240;51.370;-0.486;2023-03-31T00:59:58;8.70;;;0.68;;
71423;SDS011;59240;51.370;-0.486;2023-03-31T01:02:36;15.83;;;1.27;;
71423;SDS011;59240;51.370;-0.486;2023-03-31T01:05:06;7.97;;;0.65;;
71423;SDS011;59240;51.370;-0.486;2023-03-31T01:07:44;6.88;;;0.60;;
71423;SDS011;59240;51.370;-0.486;2023-03-31T01:10:13;7.00;;;0.60;;
71423;SDS011;59240;51.370;-0.486;2023-03-31T01:12:41;5.22;;;0.73;;
71423;SDS011;59240;51.370;-0.486;2023-03-31T01:15:11;11.17;;;0.77;;
71423;SDS011;59240;51.370;-0.486;2023-03-31T01:17:39;7.63;;;1.13;;
71423;SDS011;59240;51.370;-0.486;2023-03-31T01:20:19;4.97;;;0.32;;
71423;SDS011;59240;51.370;-0.486;2023-03-31T01:28:42;4.93;;;0.60;;
71423;SDS011;59240;51.370;-0.486;2023-03-31T01:40:12;4.85;;;0.68;;
71423;SDS011;59240;51.370;-0.486;2023-03-31T01:42:58;8.20;;;0.80;;
71423;SDS011;59240;51.370;-0.486;2023-03-31T01:45:38;14.93;;;1.50;;
71423;SDS011;59240;51.370;-0.486;2023-03-31T01:48:12;10.85;;;0.90;;
71423;SDS011;59240;51.370;-0.486;2023-03-31T01:50:54;8.65;;;0.60;;
71423;SDS011;59240;51.370;-0.486;2023-03-31T01:53:35;6.97;;;1.00;;
71423;SDS011;59240;51.370;-0.486;2023-03-31T01:59:23;7.90;;;0.82;;
71423;SDS011;59240;51.370;-0.486;2023-03-31T02:01:59;15.13;;;0.98;;
71423;SDS011;59240;51.370;-0.486;2023-03-31T02:04:36;8.10;;;0.73;;
71423;SDS011;59240;51.370;-0.486;2023-03-31T02:07:09;9.88;;;1.15;;
71423;SDS011;59240;51.370;-0.486;2023-03-31T02:09:43;14.43;;;1.23;;
71423;SDS011;59240;51.370;-0.486;2023-03-31T02:12:14;13.25;;;1.27;;
71423;SDS011;59240;51.370;-0.486;2023-03-31T02:14:44;14.45;;;1.13;;
71423;SDS011;59240;51.370;-0.486;2023-03-31T02:17:17;13.00;;;1.38;;
71423;SDS011;59240;51.370;-0.486;2023-03-31T02:20:00;11.23;;;1.65;;
71423;SDS011;59240;51.370;-0.486;2023-03-31T02:22:35;11.03;;;0.87;;
71423;SDS011;59240;51.370;-0.486;2023-03-31T02:25:05;11.45;;;1.20;;
71423;SDS011;59240;51.370;-0.486;2023-03-31T02:27:39;11.13;;;0.88;;
71423;SDS011;59240;51.370;-0.486;2023-03-31T02:30:10;12.25;;;1.17;;
71423;SDS011;59240;51.370;-0.486;2023-03-31T02:32:38;5.60;;;0.60;;
71423;SDS011;59240;51.370;-0.486;2023-03-31T02:35:07;13.33;;;1.23;;
71423;SDS011;59240;51.370;-0.486;2023-03-31T02:37:38;14.77;;;1.58;;
71423;SDS011;59240;51.370;-0.486;2023-03-31T02:40:07;13.45;;;1.55;;
71423;SDS011;59240;51.370;-0.486;2023-03-31T02:42:37;9.40;;;0.93;;
71423;SDS011;59240;51.370;-0.486;2023-03-31T02:45:06;13.68;;;1.30;;
71423;SDS011;59240;51.370;-0.486;2023-03-31T02:47:54;17.33;;;2.03;;
71423;SDS011;59240;51.370;-0.486;2023-03-31T02:50:21;12.07;;;1.23;;
71423;SDS011;59240;51.370;-0.486;2023-03-31T02:53:04;9.93;;;1.40;;
71423;SDS011;59240;51.370;-0.486;2023-03-31T02:58:47;7.53;;;1.20;;
71423;SDS011;59240;51.370;-0.486;2023-03-31T03:04:30;13.38;;;1.90;;
71423;SDS011;59240;51.370;-0.486;2023-03-31T03:12:54;15.52;;;1.35;;
71423;SDS011;59240;51.370;-0.486;2023-03-31T03:15:31;21.17;;;2.23;;
71423;SDS011;59240;51.370;-0.486;2023-03-31T03:18:02;13.82;;;1.63;;
71423;SDS011;59240;51.370;-0.486;2023-03-31T03:20:31;9.30;;;1.20;;
71423;SDS011;59240;51.370;-0.486;2023-03-31T03:22:59;19.48;;;2.40;;
71423;SDS011;59240;51.370;-0.486;2023-03-31T03:25:26;18.83;;;2.17;;
71423;SDS011;59240;51.370;-0.486;2023-03-31T03:27:52;16.83;;;2.37;;
71423;SDS011;59240;51.370;-0.486;2023-03-31T03:30:20;19.30;;;2.40;;
71423;SDS011;59240;51.370;-0.486;2023-03-31T03:32:47;15.85;;;1.70;;
71423;SDS011;59240;51.370;-0.486;2023-03-31T03:35:14;11.35;;;1.98;;
71423;SDS011;59240;51.370;-0.486;2023-03-31T03:37:41;13.27;;;1.85;;
71423;SDS011;59240;51.370;-0.486;2023-03-31T03:40:08;17.13;;;1.90;;
71423;SDS011;59240;51.370;-0.486;2023-03-31T03:42:35;18.52;;;1.48;;
71423;SDS011;59240;51.370;-0.486;2023-03-31T03:45:03;16.88;;;2.53;;
71423;SDS011;59240;51.370;-0.486;2023-03-31T03:47:30;15.70;;;1.42;;
71423;SDS011;59240;51.370;-0.486;2023-03-31T03:49:57;20.75;;;2.13;;
71423;SDS011;59240;51.370;-0.486;2023-03-31T03:52:24;17.07;;;2.30;;
71423;SDS011;59240;51.370;-0.486;2023-03-31T03:54:51;17.80;;;1.40;;
71423;SDS011;59240;51.370;-0.486;2023-03-31T03:57:17;16.42;;;2.30;;
71423;SDS011;59240;51.370;-0.486;2023-03-31T03:59:44;15.75;;;2.35;;
71423;SDS011;59240;51.370;-0.486;2023-03-31T04:02:11;14.10;;;1.70;;
71423;SDS011;59240;51.370;-0.486;2023-03-31T04:04:39;18.53;;;1.87;;
71423;SDS011;59240;51.370;-0.486;2023-03-31T04:07:05;19.55;;;3.15;;
71423;SDS011;59240;51.370;-0.486;2023-03-31T04:09:32;21.08;;;2.85;;
71423;SDS011;59240;51.370;-0.486;2023-03-31T04:11:59;21.60;;;2.13;;
71423;SDS011;59240;51.370;-0.486;2023-03-31T04:14:26;16.52;;;1.77;;
71423;SDS011;59240;51.370;-0.486;2023-03-31T04:16:52;16.20;;;1.43;;
71423;SDS011;59240;51.370;-0.486;2023-03-31T04:19:21;20.80;;;2.20;;
71423;SDS011;59240;51.370;-0.486;2023-03-31T04:21:51;18.20;;;1.60;;
71423;SDS011;59240;51.370;-0.486;2023-03-31T04:24:24;18.27;;;2.08;;
71423;SDS011;59240;51.370;-0.486;2023-03-31T04:26:56;16.23;;;2.30;;
71423;SDS011;59240;51.370;-0.486;2023-03-31T04:29:23;16.77;;;1.77;;
71423;SDS011;59240;51.370;-0.486;2023-03-31T04:31:54;15.82;;;2.58;;
71423;SDS011;59240;51.370;-0.486;2023-03-31T04:34:25;14.80;;;1.30;;
71423;SDS011;59240;51.370;-0.486;2023-03-31T04:37:00;21.25;;;1.90;;
71423;SDS011;59240;51.370;-0.486;2023-03-31T04:39:28;11.15;;;1.48;;
71423;SDS011;59240;51.370;-0.486;2023-03-31T04:41:58;14.07;;;1.00;;
71423;SDS011;59240;51.370;-0.486;2023-03-31T04:44:26;20.20;;;2.00;;
71423;SDS011;59240;51.370;-0.486;2023-03-31T04:46:54;12.63;;;2.05;;
71423;SDS011;59240;51.370;-0.486;2023-03-31T04:49:20;17.38;;;1.98;;
71423;SDS011;59240;51.370;-0.486;2023-03-31T04:51:47;14.52;;;2.35;;
71423;SDS011;59240;51.370;-0.486;2023-03-31T04:54:15;12.30;;;1.50;;
71423;SDS011;59240;51.370;-0.486;2023-03-31T04:56:41;12.40;;;1.75;;
71423;SDS011;59240;51.370;-0.486;2023-03-31T04:59:08;12.93;;;1.13;;
71423;SDS011;59240;51.370;-0.486;2023-03-31T05:01:35;16.73;;;1.73;;
71423;SDS011;59240;51.370;-0.486;2023-03-31T05:04:03;7.53;;;0.90;;
71423;SDS011;59240;51.370;-0.486;2023-03-31T05:06:33;17.00;;;2.30;;
71423;SDS011;59240;51.370;-0.486;2023-03-31T05:09:02;17.02;;;1.55;;
71423;SDS011;59240;51.370;-0.486;2023-03-31T05:11:30;13.73;;;1.27;;
71423;SDS011;59240;51.370;-0.486;2023-03-31T05:13:57;17.45;;;1.52;;
71423;SDS011;59240;51.370;-0.486;2023-03-31T05:16:24;17.25;;;1.92;;
71423;SDS011;59240;51.370;-0.486;2023-03-31T05:18:50;15.73;;;2.00;;
71423;SDS011;59240;51.370;-0.486;2023-03-31T05:21:20;14.48;;;1.40;;
71423;SDS011;59240;51.370;-0.486;2023-03-31T05:23:47;16.83;;;1.92;;
71423;SDS011;59240;51.370;-0.486;2023-03-31T05:26:14;13.02;;;1.27;;
71423;SDS011;59240;51.370;-0.486;2023-03-31T05:28:41;9.43;;;1.70;;
71423;SDS011;59240;51.370;-0.486;2023-03-31T05:31:08;7.00;;;0.70;;
71423;SDS011;59240;51.370;-0.486;2023-03-31T05:33:38;10.05;;;1.20;;
71423;SDS011;59240;51.370;-0.486;2023-03-31T05:36:15;13.00;;;0.85;;
71423;SDS011;59240;51.370;-0.486;2023-03-31T05:38:43;13.30;;;0.93;;
71423;SDS011;59240;51.370;-0.486;2023-03-31T05:41:13;6.75;;;0.65;;
71423;SDS011;59240;51.370;-0.486;2023-03-31T05:43:43;10.03;;;0.90;;
71423;SDS011;59240;51.370;-0.486;2023-03-31T05:46:15;12.50;;;1.10;;
71423;SDS011;59240;51.370;-0.486;2023-03-31T05:48:45;7.57;;;0.93;;
71423;SDS011;59240;51.370;-0.486;2023-03-31T05:51:11;10.48;;;1.38;;
71423;SDS011;59240;51.370;-0.486;2023-03-31T05:53:38;11.70;;;0.85;;
71423;SDS011;59240;51.370;-0.486;2023-03-31T05:56:05;10.03;;;0.90;;
71423;SDS011;59240;51.370;-0.486;2023-03-31T05:58:35;13.07;;;1.02;;
71423;SDS011;59240;51.370;-0.486;2023-03-31T06:01:04;5.57;;;0.40;;
71423;SDS011;59240;51.370;-0.486;2023-03-31T06:03:40;10.77;;;0.98;;
71423;SDS011;59240;51.370;-0.486;2023-03-31T06:06:08;12.95;;;2.17;;
71423;SDS011;59240;51.370;-0.486;2023-03-31T06:08:35;13.90;;;1.43;;
71423;SDS011;59240;51.370;-0.486;2023-03-31T06:11:04;11.50;;;1.17;;
71423;SDS011;59240;51.370;-0.486;2023-03-31T06:13:39;11.63;;;1.10;;
71423;SDS011;59240;51.370;-0.486;2023-03-31T06:16:14;11.52;;;1.17;;
71423;SDS011;59240;51.370;-0.486;2023-03-31T06:18:47;19.27;;;1.67;;
71423;SDS011;59240;51.370;-0.486;2023-03-31T06:21:18;15.87;;;1.47;;
71423;SDS011;59240;51.370;-0.486;2023-03-31T06:23:46;15.18;;;1.73;;
71423;SDS011;59240;51.370;-0.486;2023-03-31T06:26:29;15.07;;;1.80;;
71423;SDS011;59240;51.370;-0.486;2023-03-31T06:29:09;19.48;;;2.00;;
71423;SDS011;59240;51.370;-0.486;2023-03-31T06:31:43;20.67;;;1.55;;
71423;SDS011;59240;51.370;-0.486;2023-03-31T06:34:17;14.83;;;1.97;;
71423;SDS011;59240;51.370;-0.486;2023-03-31T06:36:51;9.05;;;1.13;;
71423;SDS011;59240;51.370;-0.486;2023-03-31T06:39:26;14.25;;;1.95;;
71423;SDS011;59240;51.370;-0.486;2023-03-31T06:45:20;15.80;;;1.02;;
71423;SDS011;59240;51.370;-0.486;2023-03-31T06:47:48;18.90;;;1.47;;
71423;SDS011;59240;51.370;-0.486;2023-03-31T06:50:19;19.73;;;1.83;;
71423;SDS011;59240;51.370;-0.486;2023-03-31T06:53:20;15.88;;;1.67;;
71423;SDS011;59240;51.370;-0.486;2023-03-31T06:55:51;19.13;;;2.63;;
71423;SDS011;59240;51.370;-0.486;2023-03-31T06:58:18;12.23;;;2.17;;
71423;SDS011;59240;51.370;-0.486;2023-03-31T07:00:50;16.93;;;2.07;;
71423;SDS011;59240;51.370;-0.486;2023-03-31T07:03:18;17.48;;;1.60;;
71423;SDS011;59240;51.370;-0.486;2023-03-31T07:05:50;19.15;;;1.85;;
71423;SDS011;59240;51.370;-0.486;2023-03-31T07:08:22;20.88;;;1.98;;
71423;SDS011;59240;51.370;-0.486;2023-03-31T07:10:52;14.98;;;1.85;;
71423;SDS011;59240;51.370;-0.486;2023-03-31T07:13:28;18.97;;;1.73;;
71423;SDS011;59240;51.370;-0.486;2023-03-31T07:15:57;25.70;;;2.63;;
71423;SDS011;59240;51.370;-0.486;2023-03-31T07:18:24;20.02;;;1.75;;
71423;SDS011;59240;51.370;-0.486;2023-03-31T07:21:07;15.60;;;1.77;;
71423;SDS011;59240;51.370;-0.486;2023-03-31T07:23:35;18.52;;;2.10;;
71423;SDS011;59240;51.370;-0.486;2023-03-31T07:26:03;22.27;;;2.47;;
71423;SDS011;59240;51.370;-0.486;2023-03-31T07:28:41;15.65;;;1.20;;
71423;SDS011;59240;51.370;-0.486;2023-03-31T07:31:14;21.08;;;2.00;;
71423;SDS011;59240;51.370;-0.486;2023-03-31T07:33:44;17.98;;;1.75;;
71423;SDS011;59240;51.370;-0.486;2023-03-31T07:36:11;26.17;;;2.92;;
71423;SDS011;59240;51.370;-0.486;2023-03-31T07:38:40;20.60;;;2.60;;
71423;SDS011;59240;51.370;-0.486;2023-03-31T07:41:22;16.42;;;1.65;;
71423;SDS011;59240;51.370;-0.486;2023-03-31T07:43:49;21.85;;;2.65;;
71423;SDS011;59240;51.370;-0.486;2023-03-31T07:46:19;17.33;;;2.45;;
71423;SDS011;59240;51.370;-0.486;2023-03-31T07:48:49;18.50;;;1.77;;
71423;SDS011;59240;51.370;-0.486;2023-03-31T07:51:19;25.37;;;3.03;;
71423;SDS011;59240;51.370;-0.486;2023-03-31T07:53:57;9.00;;;1.30;;
71423;SDS011;59240;51.370;-0.486;2023-03-31T07:56:24;21.35;;;2.60;;
71423;SDS011;59240;51.370;-0.486;2023-03-31T07:58:57;21.05;;;2.92;;
71423;SDS011;59240;51.370;-0.486;2023-03-31T08:04:17;17.27;;;2.53;;
71423;SDS011;59240;51.370;-0.486;2023-03-31T08:06:44;26.33;;;2.63;;
71423;SDS011;59240;51.370;-0.486;2023-03-31T08:09:17;21.00;;;2.08;;
71423;SDS011;59240;51.370;-0.486;2023-03-31T08:12:01;24.27;;;2.25;;
71423;SDS011;59240;51.370;-0.486;2023-03-31T08:17:31;22.57;;;2.30;;
71423;SDS011;59240;51.370;-0.486;2023-03-31T08:19:58;11.60;;;1.17;;
71423;SDS011;59240;51.370;-0.486;2023-03-31T08:22:36;15.40;;;2.10;;
71423;SDS011;59240;51.370;-0.486;2023-03-31T08:28:46;21.17;;;1.83;;
71423;SDS011;59240;51.370;-0.486;2023-03-31T08:31:53;17.23;;;2.07;;
71423;SDS011;59240;51.370;-0.486;2023-03-31T08:34:32;19.20;;;1.92;;
71423;SDS011;59240;51.370;-0.486;2023-03-31T08:37:09;22.83;;;1.67;;
71423;SDS011;59240;51.370;-0.486;2023-03-31T08:39:36;17.85;;;1.42;;
71423;SDS011;59240;51.370;-0.486;2023-03-31T08:42:10;17.92;;;1.60;;
71423;SDS011;59240;51.370;-0.486;2023-03-31T08:45:20;16.70;;;1.17;;
71423;SDS011;59240;51.370;-0.486;2023-03-31T08:47:58;7.13;;;0.95;;
71423;SDS011;59240;51.370;-0.486;2023-03-31T08:50:39;11.05;;;1.70;;
71423;SDS011;59240;51.370;-0.486;2023-03-31T08:53:30;14.43;;;1.92;;
71423;SDS011;59240;51.370;-0.486;2023-03-31T08:56:13;19.10;;;2.35;;
71423;SDS011;59240;51.370;-0.486;2023-03-31T08:58:42;22.70;;;2.57;;
71423;SDS011;59240;51.370;-0.486;2023-03-31T09:01:14;21.13;;;1.55;;
71423;SDS011;59240;51.370;-0.486;2023-03-31T09:12:33;17.07;;;1.63;;
71423;SDS011;59240;51.370;-0.486;2023-03-31T09:15:19;20.65;;;2.50;;
71423;SDS011;59240;51.370;-0.486;2023-03-31T09:17:52;12.25;;;1.60;;
71423;SDS011;59240;51.370;-0.486;2023-03-31T09:20:27;14.68;;;1.33;;
71423;SDS011;59240;51.370;-0.486;2023-03-31T09:25:47;15.43;;;1.73;;
71423;SDS011;59240;51.370;-0.486;2023-03-31T09:28:34;13.23;;;1.40;;
71423;SDS011;59240;51.370;-0.486;2023-03-31T09:31:11;12.57;;;0.82;;
71423;SDS011;59240;51.370;-0.486;2023-03-31T09:33:41;15.30;;;1.42;;
71423;SDS011;59240;51.370;-0.486;2023-03-31T09:36:22;11.50;;;0.70;;
71423;SDS011;59240;51.370;-0.486;2023-03-31T09:38:53;12.07;;;0.90;;
71423;SDS011;59240;51.370;-0.486;2023-03-31T09:41:20;9.18;;;0.90;;
71423;SDS011;59240;51.370;-0.486;2023-03-31T09:43:47;10.00;;;0.88;;
71423;SDS011;59240;51.370;-0.486;2023-03-31T09:46:28;10.93;;;1.67;;
71423;SDS011;59240;51.370;-0.486;2023-03-31T09:49:01;10.25;;;1.52;;
71423;SDS011;59240;51.370;-0.486;2023-03-31T09:51:44;9.37;;;0.83;;
71423;SDS011;59240;51.370;-0.486;2023-03-31T09:54:19;6.47;;;0.50;;
71423;SDS011;59240;51.370;-0.486;2023-03-31T09:56:51;5.88;;;0.77;;
71423;SDS011;59240;51.370;-0.486;2023-03-31T09:59:22;11.40;;;0.80;;
71423;SDS011;59240;51.370;-0.486;2023-03-31T10:02:16;5.30;;;0.30;;
71423;SDS011;59240;51.370;-0.486;2023-03-31T10:04:57;4.53;;;0.70;;
71423;SDS011;59240;51.370;-0.486;2023-03-31T10:07:33;7.30;;;0.60;;
71423;SDS011;59240;51.370;-0.486;2023-03-31T10:13:16;4.85;;;0.30;;
71423;SDS011;59240;51.370;-0.486;2023-03-31T10:19:12;4.70;;;0.27;;
71423;SDS011;59240;51.370;-0.486;2023-03-31T10:27:47;6.68;;;0.47;;
71423;SDS011;59240;51.370;-0.486;2023-03-31T10:30:22;3.83;;;0.20;;
71423;SDS011;59240;51.370;-0.486;2023-03-31T10:32:51;4.50;;;0.50;;
71423;SDS011;59240;51.370;-0.486;2023-03-31T10:35:48;3.45;;;0.40;;
71423;SDS011;59240;51.370;-0.486;2023-03-31T10:38:23;3.47;;;0.35;;
71423;SDS011;59240;51.370;-0.486;2023-03-31T10:40:56;3.63;;;0.20;;
71423;SDS011;59240;51.370;-0.486;2023-03-31T10:44:28;2.80;;;0.32;;
71423;SDS011;59240;51.370;-0.486;2023-03-31T10:46:18;4.03;;;0.20;;
71423;SDS011;59240;51.370;-0.486;2023-03-31T10:48:45;2.22;;;0.10;;
71423;SDS011;59240;51.370;-0.486;2023-03-31T10:51:25;5.30;;;0.25;;
71423;SDS011;59240;51.370;-0.486;2023-03-31T10:53:55;0.70;;;0.10;;
71423;SDS011;59240;51.370;-0.486;2023-03-31T10:56:45;3.25;;;0.20;;
71423;SDS011;59240;51.370;-0.486;2023-03-31T11:13:03;2.97;;;0.30;;
71423;SDS011;59240;51.370;-0.486;2023-03-31T11:15:39;3.00;;;0.20;;
71423;SDS011;59240;51.370;-0.486;2023-03-31T11:30:00;1.52;;;0.20;;
71423;SDS011;59240;51.370;-0.486;2023-03-31T11:36:47;3.08;;;0.55;;
71423;SDS011;59240;51.370;-0.486;2023-03-31T11:42:38;2.03;;;0.30;;
71423;SDS011;59240;51.370;-0.486;2023-03-31T11:45:26;2.88;;;0.38;;
71423;SDS011;59240;51.370;-0.486;2023-03-31T11:48:04;3.58;;;0.40;;
71423;SDS011;59240;51.370;-0.486;2023-03-31T11:50:47;3.30;;;0.40;;
71423;SDS011;59240;51.370;-0.486;2023-03-31T11:53:22;3.33;;;0.65;;
71423;SDS011;59240;51.370;-0.486;2023-03-31T11:55:58;5.30;;;0.60;;
71423;SDS011;59240;51.370;-0.486;2023-03-31T11:58:37;5.72;;;0.80;;
71423;SDS011;59240;51.370;-0.486;2023-03-31T12:01:23;5.25;;;0.60;;
71423;SDS011;59240;51.370;-0.486;2023-03-31T12:06:34;2.55;;;0.30;;
71423;SDS011;59240;51.370;-0.486;2023-03-31T12:09:29;2.67;;;0.60;;
71423;SDS011;59240;51.370;-0.486;2023-03-31T12:12:26;3.25;;;0.57;;
71423;SDS011;59240;51.370;-0.486;2023-03-31T12:15:41;4.47;;;0.90;;
71423;SDS011;59240;51.370;-0.486;2023-03-31T12:18:31;4.13;;;0.70;;
71423;SDS011;59240;51.370;-0.486;2023-03-31T12:21:03;3.72;;;0.50;;
71423;SDS011;59240;51.370;-0.486;2023-03-31T12:23:37;4.27;;;0.60;;
71423;SDS011;59240;51.370;-0.486;2023-03-31T12:28:59;3.53;;;0.47;;
71423;SDS011;59240;51.370;-0.486;2023-03-31T12:31:38;3.58;;;0.60;;
71423;SDS011;59240;51.370;-0.486;2023-03-31T12:34:37;5.85;;;0.70;;
71423;SDS011;59240;51.370;-0.486;2023-03-31T12:58:35;6.75;;;0.80;;
71423;SDS011;59240;51.370;-0.486;2023-03-31T13:13:39;4.60;;;0.52;;
71423;SDS011;59240;51.370;-0.486;2023-03-31T13:16:33;4.43;;;0.52;;
71423;SDS011;59240;51.370;-0.486;2023-03-31T13:19:25;3.30;;;0.40;;
71423;SDS011;59240;51.370;-0.486;2023-03-31T13:21:56;2.90;;;0.40;;
71423;SDS011;59240;51.370;-0.486;2023-03-31T13:24:31;6.00;;;0.80;;
71423;SDS011;59240;51.370;-0.486;2023-03-31T13:27:32;3.75;;;0.70;;
71423;SDS011;59240;51.370;-0.486;2023-03-31T13:29:59;6.20;;;0.90;;
71423;SDS011;59240;51.370;-0.486;2023-03-31T13:32:27;3.22;;;0.68;;
71423;SDS011;59240;51.370;-0.486;2023-03-31T13:40:31;4.65;;;0.50;;
71423;SDS011;59240;51.370;-0.486;2023-03-31T13:46:41;4.00;;;0.50;;
71423;SDS011;59240;51.370;-0.486;2023-03-31T13:52:37;3.53;;;0.40;;
71423;SDS011;59240;51.370;-0.486;2023-03-31T13:55:35;7.90;;;0.90;;
71423;SDS011;59240;51.370;-0.486;2023-03-31T14:05:06;6.03;;;0.63;;
71423;SDS011;59240;51.370;-0.486;2023-03-31T14:07:20;4.47;;;0.75;;
71423;SDS011;59240;51.370;-0.486;2023-03-31T14:09:54;1.80;;;0.30;;
71423;SDS011;59240;51.370;-0.486;2023-03-31T14:12:32;2.78;;;0.30;;
71423;SDS011;59240;51.370;-0.486;2023-03-31T14:15:04;4.15;;;0.40;;
71423;SDS011;59240;51.370;-0.486;2023-03-31T14:17:38;3.70;;;0.40;;
71423;SDS011;59240;51.370;-0.486;2023-03-31T14:25:46;4.00;;;0.40;;
71423;SDS011;59240;51.370;-0.486;2023-03-31T14:31:15;0.93;;;0.10;;
71423;SDS011;59240;51.370;-0.486;2023-03-31T14:39:41;2.80;;;0.35;;
71423;SDS011;59240;51.370;-0.486;2023-03-31T14:42:14;1.75;;;0.22;;
71423;SDS011;59240;51.370;-0.486;2023-03-31T14:44:45;4.07;;;0.40;;
71423;SDS011;59240;51.370;-0.486;2023-03-31T14:47:24;5.40;;;0.47;;
71423;SDS011;59240;51.370;-0.486;2023-03-31T14:49:58;2.95;;;0.30;;
71423;SDS011;59240;51.370;-0.486;2023-03-31T14:52:31;3.13;;;0.32;;
71423;SDS011;59240;51.370;-0.486;2023-03-31T14:55:01;2.70;;;0.30;;
71423;SDS011;59240;51.370;-0.486;2023-03-31T14:57:32;3.70;;;0.40;;
71423;SDS011;59240;51.370;-0.486;2023-03-31T15:00:05;3.50;;;0.30;;
71423;SDS011;59240;51.370;-0.486;2023-03-31T15:02:39;4.22;;;0.45;;
71423;SDS011;59240;51.370;-0.486;2023-03-31T15:05:14;4.00;;;0.47;;
71423;SDS011;59240;51.370;-0.486;2023-03-31T15:07:50;4.20;;;0.43;;
71423;SDS011;59240;51.370;-0.486;2023-03-31T15:10:23;3.13;;;0.50;;
71423;SDS011;59240;51.370;-0.486;2023-03-31T15:12:50;3.55;;;0.82;;
71423;SDS011;59240;51.370;-0.486;2023-03-31T15:15:17;4.35;;;0.45;;
71423;SDS011;59240;51.370;-0.486;2023-03-31T15:17:48;7.13;;;0.98;;
71423;SDS011;59240;51.370;-0.486;2023-03-31T15:23:01;3.77;;;0.30;;
71423;SDS011;59240;51.370;-0.486;2023-03-31T15:26:00;3.08;;;0.40;;
71423;SDS011;59240;51.370;-0.486;2023-03-31T15:28:40;4.32;;;0.20;;
71423;SDS011;59240;51.370;-0.486;2023-03-31T15:31:15;2.53;;;0.30;;
71423;SDS011;59240;51.370;-0.486;2023-03-31T15:33:42;1.88;;;0.13;;
71423;SDS011;59240;51.370;-0.486;2023-03-31T15:36:10;2.73;;;0.10;;
71423;SDS011;59240;51.370;-0.486;2023-03-31T15:38:37;3.83;;;0.40;;
71423;SDS011;59240;51.370;-0.486;2023-03-31T15:41:16;3.65;;;0.28;;
71423;SDS011;59240;51.370;-0.486;2023-03-31T15:47:15;5.00;;;0.43;;
71423;SDS011;59240;51.370;-0.486;2023-03-31T15:49:53;2.63;;;0.30;;
71423;SDS011;59240;51.370;-0.486;2023-03-31T15:55:22;3.53;;;0.57;;
71423;SDS011;59240;51.370;-0.486;2023-03-31T15:58:18;5.15;;;0.55;;
71423;SDS011;59240;51.370;-0.486;2023-03-31T16:01:09;5.95;;;0.40;;
71423;SDS011;59240;51.370;-0.486;2023-03-31T16:03:41;4.67;;;0.40;;
71423;SDS011;59240;51.370;-0.486;2023-03-31T16:06:17;3.70;;;0.90;;
71423;SDS011;59240;51.370;-0.486;2023-03-31T16:09:00;3.60;;;0.40;;
71423;SDS011;59240;51.370;-0.486;2023-03-31T16:11:49;4.97;;;0.52;;
71423;SDS011;59240;51.370;-0.486;2023-03-31T16:14:20;3.58;;;0.40;;
71423;SDS011;59240;51.370;-0.486;2023-03-31T16:16:58;2.00;;;0.20;;
71423;SDS011;59240;51.370;-0.486;2023-03-31T16:22:41;3.10;;;0.43;;
71423;SDS011;59240;51.370;-0.486;2023-03-31T16:25:13;2.47;;;0.30;;
71423;SDS011;59240;51.370;-0.486;2023-03-31T16:27:49;1.75;;;0.20;;
71423;SDS011;59240;51.370;-0.486;2023-03-31T16:30:33;6.47;;;0.50;;
71423;SDS011;59240;51.370;-0.486;2023-03-31T16:35:41;2.50;;;0.30;;
71423;SDS011;59240;51.370;-0.486;2023-03-31T16:38:10;5.85;;;0.30;;
71423;SDS011;59240;51.370;-0.486;2023-03-31T16:40:48;2.90;;;0.40;;
71423;SDS011;59240;51.370;-0.486;2023-03-31T16:43:26;4.70;;;0.70;;
71423;SDS011;59240;51.370;-0.486;2023-03-31T16:46:15;2.67;;;0.30;;
71423;SDS011;59240;51.370;-0.486;2023-03-31T16:48:42;3.25;;;0.50;;
71423;SDS011;59240;51.370;-0.486;2023-03-31T16:51:12;5.10;;;0.30;;
71423;SDS011;59240;51.370;-0.486;2023-03-31T16:53:42;4.60;;;0.43;;
71423;SDS011;59240;51.370;-0.486;2023-03-31T16:56:14;3.30;;;0.20;;
71423;SDS011;59240;51.370;-0.486;2023-03-31T16:58:44;5.70;;;0.65;;
71423;SDS011;59240;51.370;-0.486;2023-03-31T17:01:11;5.30;;;0.90;;
71423;SDS011;59240;51.370;-0.486;2023-03-31T17:03:38;2.67;;;0.40;;
71423;SDS011;59240;51.370;-0.486;2023-03-31T17:06:29;6.22;;;0.45;;
71423;SDS011;59240;51.370;-0.486;2023-03-31T17:08:59;3.37;;;0.77;;
71423;SDS011;59240;51.370;-0.486;2023-03-31T17:11:27;5.25;;;0.50;;
71423;SDS011;59240;51.370;-0.486;2023-03-31T17:14:02;6.75;;;0.70;;
71423;SDS011;59240;51.370;-0.486;2023-03-31T17:16:32;4.63;;;0.70;;
71423;SDS011;59240;51.370;-0.486;2023-03-31T17:19:19;6.50;;;1.05;;
71423;SDS011;59240;51.370;-0.486;2023-03-31T17:21:45;4.70;;;0.70;;
71423;SDS011;59240;51.370;-0.486;2023-03-31T17:24:12;5.50;;;0.98;;
71423;SDS011;59240;51.370;-0.486;2023-03-31T17:26:39;6.70;;;1.20;;
71423;SDS011;59240;51.370;-0.486;2023-03-31T17:29:06;10.00;;;2.30;;
71423;SDS011;59240;51.370;-0.486;2023-03-31T17:31:33;4.38;;;0.80;;
71423;SDS011;59240;51.370;-0.486;2023-03-31T17:34:00;6.20;;;0.80;;
71423;SDS011;59240;51.370;-0.486;2023-03-31T17:36:27;3.75;;;0.50;;
71423;SDS011;59240;51.370;-0.486;2023-03-31T17:38:53;4.40;;;0.82;;
71423;SDS011;59240;51.370;-0.486;2023-03-31T17:41:20;5.05;;;0.65;;
71423;SDS011;59240;51.370;-0.486;2023-03-31T17:43:56;10.00;;;1.65;;
71423;SDS011;59240;51.370;-0.486;2023-03-31T17:46:23;6.77;;;1.70;;
71423;SDS011;59240;51.370;-0.486;2023-03-31T17:48:50;10.25;;;1.27;;
71423;SDS011;59240;51.370;-0.486;2023-03-31T17:51:20;7.18;;;1.10;;
71423;SDS011;59240;51.370;-0.486;2023-03-31T17:53:48;7.90;;;1.40;;
71423;SDS011;59240;51.370;-0.486;2023-03-31T17:56:15;6.60;;;1.15;;
71423;SDS011;59240;51.370;-0.486;2023-03-31T17:58:43;5.70;;;0.80;;
71423;SDS011;59240;51.370;-0.486;2023-03-31T18:01:10;5.70;;;1.30;;
71423;SDS011;59240;51.370;-0.486;2023-03-31T18:03:38;9.57;;;2.03;;
71423;SDS011;59240;51.370;-0.486;2023-03-31T18:06:05;6.35;;;0.80;;
71423;SDS011;59240;51.370;-0.486;2023-03-31T18:08:34;4.43;;;0.77;;
71423;SDS011;59240;51.370;-0.486;2023-03-31T18:11:03;4.10;;;0.60;;
71423;SDS011;59240;51.370;-0.486;2023-03-31T18:13:34;5.88;;;0.70;;
71423;SDS011;59240;51.370;-0.486;2023-03-31T18:16:06;4.07;;;0.70;;